Etusivu
METAR-TAF:

METAR-TAF

Lentoasemat :

DeRidder, Louisiana, Yhdysvallat

Leveyspiiri: 30-49-54N, Pituuspiiri: 093-20-23W, korkeus merenpinnasta: 63 m

Tämänhetkinen sää

Tämä raportti tehtiin 14 minuuttia sitten, kello 12.35 UTC
tyyntä
Lämpötila 3°C
Kosteus 100%
Ilmanpaine 1029 hPa
Näkyvyys: 6.4 km
Pilvistä 400 ft:n korkeudessa
utua

METAR: KDRI 151235Z AUTO 00000KT 4SM BR OVC004 03/03 A3038 RMK AO2 T00310025

Aika: 06:49 (12:49 UTC)


TAF: puuttuu

Säähavainnot ja -ennusteet yli 4000 lentoasemalta (METAR- ja TAF-raportit).

Käytössä olevat sääasemat on merkitty karttaan keltaisilla ja punaisilla pisteillä.

Aseta hiiri pisteen päälle nähdäksesi sääaseman nimen.

Klikkaa sitten nähdäksesi säähavainnot ja -ennusteet.

Kartan vaihtaminen: klikkaa mustalla rastilla varustettuja vihreitä pisteitä, niin voit zoomata sisään; viivalla varustettua vihreää pistettä, niin voit zoomata ulos tai vihreitä nuolia, niin pääset viereisille kartoille.


METAR-TAF: